Time;durP1;ratioP1;P1;durP2;ratioP2;P2;SDS_P1;SDS_P2;PMS_P1;PMS_P2;Temp;Humidity;BMP_temperature;BMP_pressure;BME280_temperature;BME280_humidity;BME280_pressure;Samples;Min_cycle;Max_cycle;Signal;HPM_P1;HPM_P2
2023/11/27 06:00:32;;;;;;;9.03;3.13;;;;;;;;;;5839828;23;20489;-76
2023/11/27 06:02:58;;;;;;;6.63;3.73;;;;;;;;;;4934124;29;20504;-76
2023/11/27 06:05:25;;;;;;;6.80;3.17;;;;;;;;;;4934678;29;20917;-76
2023/11/27 06:07:51;;;;;;;4.80;3.17;;;;;;;;;;4933357;29;20408;-76
2023/11/27 06:10:17;;;;;;;6.47;3.17;;;;;;;;;;4933878;29;20920;-78
2023/11/27 06:12:43;;;;;;;6.50;3.30;;;;;;;;;;4935086;29;20752;-76
2023/11/27 06:15:14;;;;;;;12.03;3.67;;;;;;;;;;4936309;29;20574;-77
2023/11/27 06:17:41;;;;;;;12.70;4.07;;;;;;;;;;4937275;29;20473;-77
2023/11/27 06:20:09;;;;;;;7.07;4.13;;;;;;;;;;4938625;29;20426;-77
2023/11/27 06:22:36;;;;;;;13.37;3.87;;;;;;;;;;4938332;29;20472;-78
2023/11/27 06:25:02;;;;;;;11.20;4.37;;;;;;;;;;4936249;29;20425;-77
2023/11/27 06:27:28;;;;;;;7.50;4.07;;;;;;;;;;4936657;29;20500;-77
2023/11/27 06:29:54;;;;;;;13.23;4.40;;;;;;;;;;4936767;29;20468;-77
2023/11/27 06:32:20;;;;;;;7.00;4.27;;;;;;;;;;4935688;29;20484;-77
2023/11/27 06:34:47;;;;;;;6.50;4.47;;;;;;;;;;4935321;29;20424;-77
2023/11/27 06:37:13;;;;;;;7.87;4.10;;;;;;;;;;4933966;29;20469;-77
2023/11/27 06:39:39;;;;;;;10.70;4.60;;;;;;;;;;4936263;29;20472;-77
2023/11/27 06:42:05;;;;;;;9.70;4.30;;;;;;;;;;4944213;29;20438;-77
2023/11/27 06:44:31;;;;;;;9.30;4.20;;;;;;;;;;4949432;29;20418;-77
2023/11/27 06:46:58;;;;;;;15.23;4.53;;;;;;;;;;4943400;29;20497;-78
2023/11/27 06:49:24;;;;;;;10.50;4.80;;;;;;;;;;4939139;29;20417;-77
2023/11/27 06:51:50;;;;;;;8.90;4.60;;;;;;;;;;4938105;29;20448;-77
2023/11/27 06:54:16;;;;;;;11.57;5.00;;;;;;;;;;4939602;29;20421;-78
2023/11/27 06:56:43;;;;;;;12.10;4.60;;;;;;;;;;4936824;29;20477;-77
2023/11/27 06:59:09;;;;;;;10.73;5.03;;;;;;;;;;4938029;29;20429;-75
2023/11/27 07:01:39;;;;;;;7.07;4.20;;;;;;;;;;4940371;29;20924;-76
2023/11/27 07:04:05;;;;;;;12.13;4.93;;;;;;;;;;4933187;29;20874;-74
2023/11/27 07:06:31;;;;;;;13.17;6.00;;;;;;;;;;4930562;29;20429;-70
2023/11/27 07:08:59;;;;;;;11.53;6.30;;;;;;;;;;4934024;29;20529;-74
2023/11/27 07:11:25;;;;;;;12.50;5.30;;;;;;;;;;4934111;29;20449;-78
2023/11/27 07:13:51;;;;;;;11.80;6.83;;;;;;;;;;4940058;29;20434;-78
2023/11/27 07:16:17;;;;;;;21.33;4.73;;;;;;;;;;4939516;29;20457;-78
2023/11/27 07:18:46;;;;;;;11.27;4.97;;;;;;;;;;4939660;29;20418;-78
2023/11/27 07:21:12;;;;;;;13.40;5.30;;;;;;;;;;4939824;29;20440;-79
2023/11/27 07:23:41;;;;;;;15.53;5.70;;;;;;;;;;4938959;29;20425;-78
2023/11/27 07:26:08;;;;;;;8.30;4.80;;;;;;;;;;4948805;29;20422;-79
2023/11/27 07:28:34;;;;;;;14.03;4.73;;;;;;;;;;4939848;29;20481;-78
2023/11/27 07:31:02;;;;;;;18.83;5.80;;;;;;;;;;4940227;29;20448;-78
2023/11/27 07:33:28;;;;;;;8.37;5.60;;;;;;;;;;4938767;29;20421;-78
2023/11/27 07:35:54;;;;;;;15.30;5.07;;;;;;;;;;4938303;29;20511;-77
2023/11/27 07:38:20;;;;;;;12.77;5.77;;;;;;;;;;4938082;29;20483;-78
2023/11/27 07:40:46;;;;;;;6.93;4.80;;;;;;;;;;4939513;29;20433;-78
2023/11/27 07:43:12;;;;;;;9.37;5.83;;;;;;;;;;4940155;29;20460;-78
2023/11/27 07:45:39;;;;;;;7.70;4.60;;;;;;;;;;4940337;29;20412;-78
2023/11/27 07:48:05;;;;;;;9.57;5.00;;;;;;;;;;4941671;29;20420;-77
2023/11/27 07:50:31;;;;;;;14.93;5.90;;;;;;;;;;4941777;29;20803;-78
2023/11/27 07:52:57;;;;;;;8.93;5.50;;;;;;;;;;4939405;29;20429;-78
2023/11/27 07:55:23;;;;;;;25.60;5.97;;;;;;;;;;4939333;29;20414;-78
2023/11/27 07:57:50;;;;;;;9.73;4.80;;;;;;;;;;4937976;29;20936;-78
2023/11/27 08:00:16;;;;;;;14.60;5.90;;;;;;;;;;4940687;29;20426;-78
2023/11/27 08:02:45;;;;;;;14.47;6.60;;;;;;;;;;4942027;29;20449;-77
2023/11/27 08:05:11;;;;;;;18.13;6.13;;;;;;;;;;4947653;29;20485;-78
2023/11/27 08:07:37;;;;;;;9.10;5.20;;;;;;;;;;4956009;29;20831;-78
2023/11/27 08:10:03;;;;;;;15.80;6.67;;;;;;;;;;4956357;29;20468;-77
2023/11/27 08:12:29;;;;;;;18.67;6.97;;;;;;;;;;4947135;29;20556;-77
2023/11/27 08:14:55;;;;;;;14.13;6.23;;;;;;;;;;4943316;29;20564;-78
2023/11/27 08:17:21;;;;;;;11.20;5.73;;;;;;;;;;4942010;29;20890;-77
2023/11/27 08:19:48;;;;;;;16.93;6.07;;;;;;;;;;4940516;29;20453;-79
2023/11/27 08:22:15;;;;;;;13.90;4.70;;;;;;;;;;4941393;29;20460;-78
2023/11/27 08:24:41;;;;;;;7.47;4.03;;;;;;;;;;4941965;29;20433;-78
2023/11/27 08:27:07;;;;;;;10.23;5.03;;;;;;;;;;4942435;29;20484;-79
2023/11/27 08:29:33;;;;;;;7.90;4.87;;;;;;;;;;4953764;29;20476;-77
2023/11/27 08:32:00;;;;;;;12.30;4.83;;;;;;;;;;4945102;29;20441;-78
2023/11/27 08:34:26;;;;;;;15.33;6.07;;;;;;;;;;4941425;29;20793;-78
2023/11/27 08:36:52;;;;;;;13.67;5.23;;;;;;;;;;4942261;29;20461;-78
2023/11/27 08:39:20;;;;;;;6.23;4.03;;;;;;;;;;4943053;29;20418;-78
2023/11/27 08:41:47;;;;;;;11.00;5.40;;;;;;;;;;4942740;29;20949;-78
2023/11/27 08:44:12;;;;;;;11.80;5.90;;;;;;;;;;4941860;29;20417;-78
2023/11/27 08:46:38;;;;;;;14.70;6.90;;;;;;;;;;4942157;29;20428;-79
2023/11/27 08:49:04;;;;;;;14.97;7.10;;;;;;;;;;4946514;29;20432;-79
2023/11/27 08:51:31;;;;;;;14.03;5.30;;;;;;;;;;4949773;29;20460;-78
2023/11/27 08:53:57;;;;;;;11.87;5.00;;;;;;;;;;4944261;29;20422;-79
2023/11/27 08:56:23;;;;;;;13.23;4.13;;;;;;;;;;4941809;29;20457;-79
2023/11/27 08:58:49;;;;;;;11.93;4.73;;;;;;;;;;4943306;29;20407;-79
2023/11/27 09:01:16;;;;;;;11.57;4.70;;;;;;;;;;4953452;29;20464;-79
2023/11/27 09:03:42;;;;;;;14.90;5.40;;;;;;;;;;4959189;29;20441;-77
2023/11/27 09:06:09;;;;;;;11.53;5.20;;;;;;;;;;4958170;29;20414;-77
2023/11/27 09:08:35;;;;;;;15.80;6.23;;;;;;;;;;4957919;29;20410;-77
2023/11/27 09:11:01;;;;;;;12.60;5.77;;;;;;;;;;4955845;29;20437;-77
2023/11/27 09:13:29;;;;;;;12.17;5.30;;;;;;;;;;4955888;29;20413;-77
2023/11/27 09:15:55;;;;;;;11.07;5.37;;;;;;;;;;4954384;29;20996;-77
2023/11/27 09:18:21;;;;;;;9.43;5.03;;;;;;;;;;4954968;29;20518;-78
2023/11/27 09:20:46;;;;;;;10.47;5.07;;;;;;;;;;4958273;29;20444;-78
2023/11/27 09:23:12;;;;;;;15.50;5.03;;;;;;;;;;4951778;29;20426;-78
2023/11/27 09:25:39;;;;;;;7.70;4.23;;;;;;;;;;4948456;29;20417;-78
2023/11/27 09:28:05;;;;;;;12.10;5.67;;;;;;;;;;4950876;29;20443;-79
2023/11/27 09:30:31;;;;;;;10.30;5.37;;;;;;;;;;4950077;29;20465;-79
2023/11/27 09:32:57;;;;;;;8.60;5.30;;;;;;;;;;4944222;29;20497;-79
2023/11/27 09:35:23;;;;;;;7.63;5.23;;;;;;;;;;4941950;29;20932;-79
2023/11/27 09:37:49;;;;;;;12.93;5.37;;;;;;;;;;4940400;29;20480;-79
2023/11/27 09:40:16;;;;;;;11.70;5.83;;;;;;;;;;4940128;29;20893;-79
2023/11/27 09:42:42;;;;;;;12.90;5.67;;;;;;;;;;4942288;29;20501;-79
2023/11/27 09:45:12;;;;;;;15.43;6.00;;;;;;;;;;4942671;29;20421;-79
2023/11/27 09:47:39;;;;;;;15.30;5.60;;;;;;;;;;4940838;29;20789;-79
2023/11/27 09:50:12;;;;;;;13.50;6.00;;;;;;;;;;4940611;29;20422;-78
2023/11/27 09:53:00;;;;;;;12.30;5.60;;;;;;;;;;4940441;29;20432;-79
2023/11/27 09:55:26;;;;;;;19.27;6.27;;;;;;;;;;4941052;29;20418;-78
2023/11/27 09:57:52;;;;;;;13.93;5.87;;;;;;;;;;4940723;29;20804;-79
2023/11/27 10:00:19;;;;;;;23.67;6.63;;;;;;;;;;4941185;29;20406;-79
2023/11/27 10:02:47;;;;;;;12.97;5.87;;;;;;;;;;4940275;29;20451;-79
2023/11/27 10:05:14;;;;;;;12.73;5.83;;;;;;;;;;4941004;29;20437;-78
2023/11/27 10:07:40;;;;;;;13.57;5.63;;;;;;;;;;4941210;29;20436;-79
2023/11/27 10:10:07;;;;;;;15.07;6.43;;;;;;;;;;4941852;29;20755;-78
2023/11/27 10:12:35;;;;;;;15.60;6.00;;;;;;;;;;4944928;29;20452;-79
2023/11/27 10:15:11;;;;;;;13.33;5.27;;;;;;;;;;4940713;29;20425;-79
2023/11/27 10:17:37;;;;;;;13.20;6.33;;;;;;;;;;4949767;29;20476;-79
2023/11/27 10:20:04;;;;;;;13.97;6.00;;;;;;;;;;4947392;29;20521;-78
2023/11/27 10:22:32;;;;;;;11.80;5.30;;;;;;;;;;4941419;29;20444;-79
2023/11/27 10:25:02;;;;;;;10.30;5.20;;;;;;;;;;4942519;29;20426;-79
2023/11/27 10:27:28;;;;;;;18.50;5.70;;;;;;;;;;4939007;29;20929;-79
2023/11/27 10:29:54;;;;;;;11.80;4.53;;;;;;;;;;4939592;29;20493;-78
2023/11/27 10:32:23;;;;;;;11.20;4.10;;;;;;;;;;4940532;29;20446;-78
2023/11/27 10:34:49;;;;;;;6.17;3.80;;;;;;;;;;4940105;29;20445;-80
2023/11/27 10:37:16;;;;;;;8.23;4.33;;;;;;;;;;4940136;29;20460;-79
2023/11/27 10:39:42;;;;;;;9.93;4.63;;;;;;;;;;4938678;29;20956;-79
2023/11/27 10:42:11;;;;;;;10.40;5.60;;;;;;;;;;4940400;29;20429;-79
2023/11/27 10:44:37;;;;;;;4.97;3.07;;;;;;;;;;4941168;29;20417;-79
2023/11/27 10:47:07;;;;;;;6.10;3.50;;;;;;;;;;4938414;29;20426;-79
2023/11/27 10:49:35;;;;;;;5.60;2.53;;;;;;;;;;4938773;29;20511;-79
2023/11/27 10:52:02;;;;;;;3.43;2.43;;;;;;;;;;4938692;29;20434;-79
2023/11/27 10:54:30;;;;;;;3.17;2.20;;;;;;;;;;4938743;29;20424;-79
2023/11/27 10:56:59;;;;;;;3.10;2.23;;;;;;;;;;4946147;29;20456;-79
2023/11/27 10:59:26;;;;;;;4.03;2.60;;;;;;;;;;4957794;29;20445;-78
2023/11/27 11:01:58;;;;;;;4.20;2.37;;;;;;;;;;4956954;29;20473;-78
2023/11/27 11:04:27;;;;;;;2.70;2.20;;;;;;;;;;4957245;29;20436;-77
2023/11/27 11:06:55;;;;;;;2.83;2.30;;;;;;;;;;4954240;28;20442;-79
2023/11/27 11:09:25;;;;;;;3.97;2.23;;;;;;;;;;4951349;29;20523;-79
2023/11/27 11:11:52;;;;;;;3.80;2.10;;;;;;;;;;4941354;29;20453;-79
2023/11/27 11:14:19;;;;;;;5.87;3.90;;;;;;;;;;4947777;29;20417;-79
2023/11/27 11:17:05;;;;;;;7.23;3.57;;;;;;;;;;4951993;28;20464;-77
2023/11/27 11:19:50;;;;;;;5.67;3.03;;;;;;;;;;4955945;29;20414;-77
2023/11/27 11:22:36;;;;;;;4.77;2.30;;;;;;;;;;4957239;28;20441;-77
2023/11/27 11:25:15;;;;;;;2.83;2.00;;;;;;;;;;4952092;29;20426;-79
2023/11/27 11:28:05;;;;;;;5.00;2.97;;;;;;;;;;4940808;29;20429;-79
2023/11/27 11:30:31;;;;;;;6.70;3.10;;;;;;;;;;4941895;29;20853;-77
2023/11/27 11:32:57;;;;;;;3.50;2.20;;;;;;;;;;4951446;28;20436;-79
2023/11/27 11:35:27;;;;;;;3.87;2.50;;;;;;;;;;4948899;29;20784;-79
2023/11/27 11:37:53;;;;;;;3.00;2.57;;;;;;;;;;4949458;29;20496;-78
2023/11/27 11:40:19;;;;;;;6.33;3.00;;;;;;;;;;4941665;29;20413;-78
2023/11/27 11:42:47;;;;;;;5.37;3.60;;;;;;;;;;4942811;29;20410;-79
2023/11/27 11:45:17;;;;;;;4.60;3.40;;;;;;;;;;4941198;29;20417;-78
2023/11/27 11:47:43;;;;;;;7.70;3.27;;;;;;;;;;4940284;29;20428;-78
2023/11/27 11:50:29;;;;;;;4.40;3.17;;;;;;;;;;4941639;29;20422;-79
2023/11/27 11:52:56;;;;;;;5.23;3.50;;;;;;;;;;4943048;29;20596;-79
2023/11/27 11:55:32;;;;;;;8.90;3.70;;;;;;;;;;4943356;29;20461;-79
2023/11/27 11:58:02;;;;;;;7.87;2.47;;;;;;;;;;4941330;29;20443;-79
2023/11/27 12:00:42;;;;;;;5.70;2.63;;;;;;;;;;4942926;29;20418;-79
2023/11/27 12:03:08;;;;;;;7.00;3.60;;;;;;;;;;4943798;29;20413;-79
2023/11/27 12:05:34;;;;;;;7.23;3.00;;;;;;;;;;4941447;29;20413;-79
2023/11/27 12:08:00;;;;;;;14.70;3.53;;;;;;;;;;4941651;29;20422;-79
2023/11/27 12:10:31;;;;;;;5.73;2.90;;;;;;;;;;4942197;29;20469;-80
2023/11/27 12:12:57;;;;;;;5.60;3.30;;;;;;;;;;4942836;29;20406;-79
2023/11/27 12:15:24;;;;;;;6.37;2.70;;;;;;;;;;4941981;29;20489;-80
2023/11/27 12:17:50;;;;;;;3.23;1.93;;;;;;;;;;4937508;29;20472;-79
2023/11/27 12:20:22;;;;;;;5.80;2.80;;;;;;;;;;4939427;29;20417;-78
2023/11/27 12:22:49;;;;;;;3.40;2.13;;;;;;;;;;4939090;29;20438;-78
2023/11/27 12:25:18;;;;;;;3.53;2.30;;;;;;;;;;4938212;29;20890;-79
2023/11/27 12:27:45;;;;;;;5.33;2.63;;;;;;;;;;4938660;29;20410;-79
2023/11/27 12:30:13;;;;;;;3.30;2.00;;;;;;;;;;4938799;29;20410;-79
2023/11/27 12:32:39;;;;;;;6.93;2.23;;;;;;;;;;4938581;29;20414;-78
2023/11/27 12:35:14;;;;;;;5.43;2.33;;;;;;;;;;4939078;29;20437;-79
2023/11/27 12:37:42;;;;;;;13.60;2.50;;;;;;;;;;4937795;29;20469;-80
2023/11/27 12:40:08;;;;;;;5.20;3.10;;;;;;;;;;4938830;29;20413;-82
2023/11/27 12:42:34;;;;;;;5.60;2.13;;;;;;;;;;4938865;29;20477;-80
2023/11/27 12:45:05;;;;;;;3.53;1.60;;;;;;;;;;4937141;29;20430;-80
2023/11/27 12:47:34;;;;;;;2.90;1.70;;;;;;;;;;4938951;29;20432;-79
2023/11/27 12:50:01;;;;;;;4.33;1.50;;;;;;;;;;4938176;29;20426;-79
2023/11/27 12:52:27;;;;;;;2.20;1.60;;;;;;;;;;4938481;29;20437;-79
2023/11/27 12:54:56;;;;;;;1.43;1.33;;;;;;;;;;4936933;29;20484;-77
2023/11/27 12:57:22;;;;;;;2.10;1.90;;;;;;;;;;4934801;29;20465;-77
2023/11/27 12:59:49;;;;;;;4.87;1.87;;;;;;;;;;4936452;29;20969;-78
2023/11/27 13:02:21;;;;;;;3.37;1.47;;;;;;;;;;4937119;29;20449;-77
2023/11/27 13:04:51;;;;;;;1.60;1.33;;;;;;;;;;4936825;29;20441;-77
2023/11/27 13:07:19;;;;;;;1.27;1.20;;;;;;;;;;4936504;29;20504;-77
2023/11/27 13:09:46;;;;;;;5.03;1.40;;;;;;;;;;4935054;29;20584;-77
2023/11/27 13:12:15;;;;;;;6.10;1.50;;;;;;;;;;4936546;29;20947;-77
2023/11/27 13:14:42;;;;;;;4.80;2.00;;;;;;;;;;4935062;29;20859;-77
2023/11/27 13:17:10;;;;;;;1.70;1.60;;;;;;;;;;4935844;29;20977;-78
2023/11/27 13:19:43;;;;;;;1.63;1.57;;;;;;;;;;4937653;29;20494;-79
2023/11/27 13:22:14;;;;;;;2.57;1.63;;;;;;;;;;4937764;29;20438;-77
2023/11/27 13:24:40;;;;;;;3.80;1.50;;;;;;;;;;4936098;29;20933;-78
2023/11/27 13:27:07;;;;;;;3.80;1.50;;;;;;;;;;4936510;29;20418;-77
2023/11/27 13:29:33;;;;;;;2.50;1.73;;;;;;;;;;4936103;29;20449;-77
2023/11/27 13:32:01;;;;;;;2.10;1.50;;;;;;;;;;4935850;29;20441;-78
2023/11/27 13:34:33;;;;;;;1.73;1.43;;;;;;;;;;4935725;29;20503;-78
2023/11/27 13:36:59;;;;;;;3.57;2.90;;;;;;;;;;4935561;29;20461;-77
2023/11/27 13:39:36;;;;;;;2.53;2.37;;;;;;;;;;4935689;29;20414;-77
2023/11/27 13:42:04;;;;;;;3.00;1.90;;;;;;;;;;4934280;29;20437;-77
2023/11/27 13:44:30;;;;;;;2.50;2.10;;;;;;;;;;4935901;29;20980;-77
2023/11/27 13:46:56;;;;;;;3.70;1.97;;;;;;;;;;4934066;29;20418;-78
2023/11/27 13:49:25;;;;;;;6.60;2.43;;;;;;;;;;4935525;29;20727;-78
2023/11/27 13:52:00;;;;;;;3.70;1.77;;;;;;;;;;4935688;29;20959;-79
2023/11/27 13:54:26;;;;;;;4.23;1.90;;;;;;;;;;4934221;29;20448;-78
2023/11/27 13:56:58;;;;;;;1.60;1.50;;;;;;;;;;4934525;29;20468;-78
2023/11/27 13:59:26;;;;;;;3.10;1.30;;;;;;;;;;4934850;29;20506;-78
2023/11/27 14:01:54;;;;;;;6.13;2.10;;;;;;;;;;4947638;29;20472;-78
2023/11/27 14:04:30;;;;;;;2.80;1.90;;;;;;;;;;4948818;29;20414;-78
2023/11/27 14:06:59;;;;;;;2.90;1.63;;;;;;;;;;4945787;29;20733;-78
2023/11/27 14:12:12;;;;;;;3.90;1.60;;;;;;;;;;4940065;29;20508;-78
2023/11/27 14:14:38;;;;;;;4.20;1.83;;;;;;;;;;4935791;29;20402;-78
2023/11/27 14:17:18;;;;;;;2.83;1.90;;;;;;;;;;4934323;29;20469;-78
2023/11/27 14:29:43;;;;;;;10.37;3.27;;;;;;;;;;4935481;29;20413;-78
2023/11/27 14:32:09;;;;;;;5.50;3.10;;;;;;;;;;4935391;29;20434;-77
2023/11/27 14:34:35;;;;;;;6.13;3.57;;;;;;;;;;4933930;29;20422;-79
2023/11/27 14:37:04;;;;;;;9.73;2.90;;;;;;;;;;4934962;29;20445;-78
2023/11/27 14:39:33;;;;;;;7.40;3.70;;;;;;;;;;4934210;29;20922;-79
2023/11/27 14:41:59;;;;;;;7.50;4.50;;;;;;;;;;4933956;29;20472;-79
2023/11/27 14:44:25;;;;;;;7.27;3.60;;;;;;;;;;4935614;29;20406;-79
2023/11/27 14:46:53;;;;;;;14.77;4.27;;;;;;;;;;4935737;29;20563;-79
2023/11/27 14:49:20;;;;;;;9.53;3.40;;;;;;;;;;4935407;29;20414;-79
2023/11/27 14:51:49;;;;;;;7.87;4.10;;;;;;;;;;4934315;29;20442;-78
2023/11/27 14:54:16;;;;;;;16.50;5.00;;;;;;;;;;4935385;29;20492;-78
2023/11/27 14:56:42;;;;;;;11.27;4.20;;;;;;;;;;4935874;29;20446;-78
2023/11/27 14:59:09;;;;;;;7.80;4.20;;;;;;;;;;4936147;29;20410;-79
2023/11/27 15:01:35;;;;;;;7.73;4.30;;;;;;;;;;4936623;29;20438;-78
2023/11/27 15:04:02;;;;;;;12.80;4.50;;;;;;;;;;4934305;29;20422;-79
2023/11/27 15:06:30;;;;;;;10.33;3.07;;;;;;;;;;4933976;29;20465;-79
2023/11/27 15:08:58;;;;;;;8.00;3.40;;;;;;;;;;4937304;29;20909;-79
2023/11/27 15:11:24;;;;;;;7.97;4.13;;;;;;;;;;4939165;29;20441;-79
2023/11/27 15:13:51;;;;;;;5.47;2.80;;;;;;;;;;4947023;28;20437;-84
2023/11/27 15:16:18;;;;;;;9.67;3.73;;;;;;;;;;4960371;28;20476;-82
2023/11/27 15:18:44;;;;;;;9.87;2.70;;;;;;;;;;4957393;29;20469;-79
2023/11/27 15:21:10;;;;;;;6.40;3.60;;;;;;;;;;4951968;29;20422;-78
2023/11/27 15:23:36;;;;;;;9.67;4.00;;;;;;;;;;4942158;29;20935;-78
2023/11/27 15:26:04;;;;;;;10.83;4.83;;;;;;;;;;4941829;29;20422;-77
2023/11/27 15:28:30;;;;;;;9.40;4.90;;;;;;;;;;4941293;29;20421;-78
2023/11/27 15:30:57;;;;;;;4.60;2.77;;;;;;;;;;4941010;29;20524;-78
2023/11/27 15:33:24;;;;;;;8.50;3.37;;;;;;;;;;4940552;29;20421;-78
2023/11/27 15:35:51;;;;;;;5.00;2.77;;;;;;;;;;4940123;29;20487;-78
2023/11/27 15:38:23;;;;;;;3.77;2.40;;;;;;;;;;4938871;29;20914;-78
2023/11/27 15:40:49;;;;;;;2.90;2.17;;;;;;;;;;4958817;28;20437;-81
2023/11/27 15:43:15;;;;;;;4.77;2.70;;;;;;;;;;4962560;28;20428;-84
2023/11/27 15:45:41;;;;;;;3.93;2.63;;;;;;;;;;4962274;28;20456;-81
2023/11/27 15:48:10;;;;;;;8.93;2.67;;;;;;;;;;4959888;29;20433;-80
2023/11/27 15:50:36;;;;;;;6.70;2.40;;;;;;;;;;4953698;28;20481;-78
2023/11/27 15:53:02;;;;;;;3.10;2.17;;;;;;;;;;4949855;28;20417;-79
2023/11/27 15:55:29;;;;;;;4.90;2.40;;;;;;;;;;4951988;29;20413;-78
2023/11/27 15:57:55;;;;;;;6.20;2.10;;;;;;;;;;4948961;29;21010;-78
2023/11/27 16:00:21;;;;;;;10.00;3.27;;;;;;;;;;4941117;29;20443;-78
2023/11/27 16:02:47;;;;;;;4.13;2.27;;;;;;;;;;4941508;29;21042;-77
2023/11/27 16:05:17;;;;;;;3.13;1.77;;;;;;;;;;4939394;29;20418;-78
2023/11/27 16:07:43;;;;;;;2.83;2.10;;;;;;;;;;4942499;29;20505;-78
2023/11/27 16:10:19;;;;;;;5.63;2.40;;;;;;;;;;4947976;29;20481;-79
2023/11/27 16:12:45;;;;;;;5.63;2.57;;;;;;;;;;4940670;29;20420;-78
2023/11/27 16:15:12;;;;;;;2.33;2.00;;;;;;;;;;4938413;29;20974;-79
2023/11/27 16:17:42;;;;;;;3.93;2.07;;;;;;;;;;4937836;29;20469;-78
2023/11/27 16:20:11;;;;;;;2.17;2.00;;;;;;;;;;4937852;29;20449;-77
2023/11/27 16:22:38;;;;;;;3.47;1.90;;;;;;;;;;4938832;29;20472;-78
2023/11/27 16:25:06;;;;;;;7.40;3.23;;;;;;;;;;4941793;29;20418;-78
2023/11/27 16:27:32;;;;;;;7.40;2.93;;;;;;;;;;4954303;29;20406;-78
2023/11/27 16:29:58;;;;;;;3.30;2.27;;;;;;;;;;4937907;29;20550;-78
2023/11/27 16:32:25;;;;;;;5.23;2.20;;;;;;;;;;4938905;29;20432;-78
2023/11/27 16:34:51;;;;;;;1.70;1.60;;;;;;;;;;4940864;29;20421;-77
2023/11/27 16:37:17;;;;;;;7.07;2.53;;;;;;;;;;4950227;29;20808;-78
2023/11/27 16:39:44;;;;;;;4.40;2.13;;;;;;;;;;4949480;29;20510;-77
2023/11/27 16:42:10;;;;;;;4.77;2.60;;;;;;;;;;4940676;29;21004;-79
2023/11/27 16:44:36;;;;;;;6.07;3.13;;;;;;;;;;4939991;29;20465;-79
2023/11/27 16:47:02;;;;;;;4.10;2.50;;;;;;;;;;4944081;29;20745;-78
2023/11/27 16:49:29;;;;;;;4.50;1.80;;;;;;;;;;4948309;29;20560;-79
2023/11/27 16:51:55;;;;;;;10.60;2.83;;;;;;;;;;4950780;29;20438;-77
2023/11/27 16:54:21;;;;;;;5.37;2.53;;;;;;;;;;4949740;29;20516;-77
2023/11/27 16:56:48;;;;;;;4.20;2.47;;;;;;;;;;4943814;29;20827;-78
2023/11/27 16:59:15;;;;;;;4.77;2.10;;;;;;;;;;4936723;29;20496;-77
2023/11/27 17:01:41;;;;;;;7.23;3.07;;;;;;;;;;4936617;29;20453;-78
2023/11/27 17:04:07;;;;;;;2.20;1.60;;;;;;;;;;4937139;29;20414;-78
2023/11/27 17:06:33;;;;;;;2.93;2.50;;;;;;;;;;4938243;29;20929;-79
2023/11/27 17:08:59;;;;;;;3.47;2.67;;;;;;;;;;4935200;29;20536;-78
2023/11/27 17:11:25;;;;;;;5.33;2.03;;;;;;;;;;4935107;29;20596;-78
2023/11/27 17:13:51;;;;;;;4.60;2.30;;;;;;;;;;4936824;29;20445;-78
2023/11/27 17:16:17;;;;;;;3.53;1.80;;;;;;;;;;4935705;29;20809;-77
2023/11/27 17:18:43;;;;;;;4.43;2.30;;;;;;;;;;4936555;29;20420;-79
2023/11/27 17:21:09;;;;;;;2.63;1.77;;;;;;;;;;4936238;29;20849;-79
2023/11/27 17:23:37;;;;;;;4.03;2.10;;;;;;;;;;4937737;29;20418;-79
2023/11/27 17:26:03;;;;;;;3.90;1.80;;;;;;;;;;4937841;29;20413;-79
2023/11/27 17:28:30;;;;;;;2.87;1.83;;;;;;;;;;4935624;29;20770;-77
2023/11/27 17:30:56;;;;;;;2.77;1.70;;;;;;;;;;4935964;29;20438;-79
2023/11/27 17:33:23;;;;;;;3.47;1.90;;;;;;;;;;4934727;29;20449;-78
2023/11/27 17:35:49;;;;;;;2.90;1.90;;;;;;;;;;4936350;29;21001;-79
2023/11/27 17:38:15;;;;;;;3.80;2.50;;;;;;;;;;4935846;29;20504;-79
2023/11/27 17:40:41;;;;;;;3.63;2.23;;;;;;;;;;4934717;29;20525;-79
2023/11/27 17:43:10;;;;;;;4.93;1.93;;;;;;;;;;4934583;29;20434;-78
2023/11/27 17:45:41;;;;;;;2.03;1.80;;;;;;;;;;4934604;29;20978;-78
2023/11/27 17:48:07;;;;;;;1.83;1.63;;;;;;;;;;4935205;29;20453;-78
2023/11/27 17:50:34;;;;;;;2.57;1.60;;;;;;;;;;4936073;29;20521;-79
2023/11/27 17:53:00;;;;;;;4.93;2.53;;;;;;;;;;4936070;29;20418;-78
2023/11/27 17:55:28;;;;;;;2.83;2.37;;;;;;;;;;4935906;29;20505;-78
2023/11/27 17:57:55;;;;;;;3.60;2.70;;;;;;;;;;4934787;29;21112;-77
2023/11/27 18:00:21;;;;;;;3.23;2.10;;;;;;;;;;4934508;29;20441;-80
2023/11/27 18:02:51;;;;;;;3.87;2.60;;;;;;;;;;4934866;29;20418;-79
2023/11/27 18:05:22;;;;;;;4.10;2.17;;;;;;;;;;4934558;29;20529;-78
2023/11/27 18:07:48;;;;;;;6.83;2.50;;;;;;;;;;4934754;29;20955;-78
2023/11/27 18:10:17;;;;;;;11.77;3.70;;;;;;;;;;4934249;29;20925;-78
2023/11/27 18:12:43;;;;;;;6.87;3.23;;;;;;;;;;4934634;29;20921;-80
2023/11/27 18:15:09;;;;;;;6.60;2.47;;;;;;;;;;4959587;23;20759;-75
2023/11/27 18:17:38;;;;;;;8.43;3.50;;;;;;;;;;4935721;29;20532;-75
2023/11/27 18:20:08;;;;;;;6.17;3.20;;;;;;;;;;4934669;29;20432;-75
2023/11/27 18:22:34;;;;;;;3.03;2.83;;;;;;;;;;4935393;29;20413;-75
2023/11/27 18:25:00;;;;;;;4.57;2.50;;;;;;;;;;4935174;29;20538;-76
2023/11/27 18:27:26;;;;;;;3.10;2.20;;;;;;;;;;4934822;29;20418;-75
2023/11/27 18:29:52;;;;;;;4.43;2.37;;;;;;;;;;4933886;29;20929;-75
2023/11/27 18:32:19;;;;;;;8.60;2.73;;;;;;;;;;4933632;29;20451;-74
2023/11/27 18:34:46;;;;;;;6.70;2.83;;;;;;;;;;4926358;29;20922;-74
2023/11/27 18:37:12;;;;;;;3.60;2.13;;;;;;;;;;4915551;29;20498;-74
2023/11/27 18:39:39;;;;;;;6.80;2.10;;;;;;;;;;4916951;29;20510;-74
2023/11/27 18:42:06;;;;;;;2.70;2.00;;;;;;;;;;4916120;29;20418;-74
2023/11/27 18:44:32;;;;;;;4.60;1.87;;;;;;;;;;4927662;29;20441;-74
2023/11/27 18:46:58;;;;;;;3.87;2.30;;;;;;;;;;4934338;29;20948;-75
2023/11/27 18:49:26;;;;;;;3.93;2.03;;;;;;;;;;4932450;29;20453;-75
2023/11/27 18:51:56;;;;;;;2.87;1.93;;;;;;;;;;4931980;29;20815;-75
2023/11/27 18:54:23;;;;;;;3.17;1.87;;;;;;;;;;4942419;29;21057;-76
2023/11/27 18:56:49;;;;;;;6.27;2.20;;;;;;;;;;4945912;29;20971;-76
2023/11/27 18:59:16;;;;;;;5.33;3.00;;;;;;;;;;4952760;29;20408;-75
2023/11/27 19:01:42;;;;;;;7.73;4.90;;;;;;;;;;4952995;28;20405;-77
2023/11/27 19:04:08;;;;;;;4.07;2.07;;;;;;;;;;4954411;29;20762;-76
2023/11/27 19:06:34;;;;;;;2.53;1.80;;;;;;;;;;4951951;28;20509;-77
2023/11/27 19:09:00;;;;;;;1.93;1.53;;;;;;;;;;4934718;29;20493;-76
2023/11/27 19:11:26;;;;;;;4.00;2.80;;;;;;;;;;4923075;29;20473;-76
2023/11/27 19:13:52;;;;;;;5.60;1.90;;;;;;;;;;4938607;29;20425;-75
2023/11/27 19:16:18;;;;;;;4.93;2.50;;;;;;;;;;4937468;29;20484;-74
2023/11/27 19:18:49;;;;;;;2.57;1.73;;;;;;;;;;4935220;29;20530;-73
2023/11/27 19:21:15;;;;;;;2.60;1.43;;;;;;;;;;4936144;28;20426;-74
2023/11/27 19:23:41;;;;;;;4.57;2.73;;;;;;;;;;4933998;29;20425;-73
2023/11/27 19:26:07;;;;;;;1.40;1.30;;;;;;;;;;4935228;29;20437;-73
2023/11/27 19:28:34;;;;;;;3.93;1.53;;;;;;;;;;4934135;29;20429;-73
2023/11/27 19:31:00;;;;;;;2.40;1.73;;;;;;;;;;4940685;29;20493;-73
2023/11/27 19:33:31;;;;;;;3.90;2.00;;;;;;;;;;4936194;29;20485;-73
2023/11/27 19:35:57;;;;;;;2.00;1.87;;;;;;;;;;4934851;29;20941;-73
2023/11/27 19:38:22;;;;;;;2.10;1.70;;;;;;;;;;4934534;29;20426;-73
2023/11/27 19:40:48;;;;;;;5.13;3.03;;;;;;;;;;4934811;29;20972;-74
2023/11/27 19:43:15;;;;;;;4.57;2.70;;;;;;;;;;4935047;29;20436;-75
2023/11/27 19:45:41;;;;;;;1.67;1.50;;;;;;;;;;4934840;29;20469;-73
2023/11/27 19:48:07;;;;;;;3.80;2.60;;;;;;;;;;4934599;29;20468;-75
2023/11/27 19:50:33;;;;;;;1.87;1.83;;;;;;;;;;4933424;29;20445;-73
2023/11/27 19:52:59;;;;;;;2.70;2.03;;;;;;;;;;4934705;29;20434;-73
2023/11/27 19:55:25;;;;;;;2.43;1.77;;;;;;;;;;4935376;29;20813;-75
2023/11/27 19:57:51;;;;;;;3.50;1.90;;;;;;;;;;4937698;29;20464;-75
2023/11/27 20:00:18;;;;;;;2.53;1.63;;;;;;;;;;4937775;29;20425;-74
2023/11/27 20:02:44;;;;;;;3.53;1.80;;;;;;;;;;4937444;29;20482;-76
2023/11/27 20:05:10;;;;;;;2.50;1.83;;;;;;;;;;4937705;29;20421;-76
2023/11/27 20:07:37;;;;;;;3.63;2.33;;;;;;;;;;4938298;29;20444;-75
2023/11/27 20:10:04;;;;;;;6.70;3.33;;;;;;;;;;4938161;29;20425;-75
2023/11/27 20:12:31;;;;;;;3.60;2.03;;;;;;;;;;4937652;29;20480;-75
2023/11/27 20:14:57;;;;;;;2.60;1.97;;;;;;;;;;4937935;29;20568;-75
2023/11/27 20:17:22;;;;;;;1.70;1.60;;;;;;;;;;4950417;29;20481;-75
2023/11/27 20:19:50;;;;;;;3.00;1.80;;;;;;;;;;4955967;29;20409;-74
2023/11/27 20:22:16;;;;;;;1.83;1.70;;;;;;;;;;4957572;29;20929;-75
2023/11/27 20:24:44;;;;;;;4.50;2.17;;;;;;;;;;4951186;29;20417;-74
2023/11/27 20:27:11;;;;;;;2.10;1.47;;;;;;;;;;4957904;29;20952;-74
2023/11/27 20:29:44;;;;;;;1.87;1.77;;;;;;;;;;4954109;29;20418;-74
2023/11/27 20:32:10;;;;;;;1.63;1.57;;;;;;;;;;4938081;29;20429;-74
2023/11/27 20:34:36;;;;;;;1.67;1.47;;;;;;;;;;4938225;29;20426;-74
2023/11/27 20:37:03;;;;;;;1.57;1.53;;;;;;;;;;4937125;29;20980;-74
2023/11/27 20:39:29;;;;;;;3.60;1.87;;;;;;;;;;4937068;29;20425;-75
2023/11/27 20:41:55;;;;;;;2.60;1.60;;;;;;;;;;4943955;28;20417;-75
2023/11/27 20:44:21;;;;;;;2.93;1.73;;;;;;;;;;4937331;29;20444;-75
2023/11/27 20:46:47;;;;;;;2.03;1.50;;;;;;;;;;4935171;29;20445;-75
2023/11/27 20:49:13;;;;;;;2.17;1.60;;;;;;;;;;4937546;29;20512;-73
2023/11/27 20:51:39;;;;;;;2.30;1.70;;;;;;;;;;4937064;29;20426;-73
2023/11/27 20:54:06;;;;;;;4.63;1.50;;;;;;;;;;4936990;29;20481;-74